sensor_id;sensor_type;location;lat;lon;timestamp;P1;durP1;ratioP1;P2;durP2;ratioP2
59159;SDS011;44941;45.058;20.076;2023-03-04T00:02:01;72.65;;;31.85;;
59159;SDS011;44941;45.058;20.076;2023-03-04T00:04:27;76.65;;;31.15;;
59159;SDS011;44941;45.058;20.076;2023-03-04T00:06:53;74.20;;;32.63;;
59159;SDS011;44941;45.058;20.076;2023-03-04T00:09:19;69.22;;;30.38;;
59159;SDS011;44941;45.058;20.076;2023-03-04T00:11:45;67.45;;;30.65;;
59159;SDS011;44941;45.058;20.076;2023-03-04T00:14:11;73.70;;;30.80;;
59159;SDS011;44941;45.058;20.076;2023-03-04T00:16:37;73.35;;;29.75;;
59159;SDS011;44941;45.058;20.076;2023-03-04T00:19:03;68.35;;;28.92;;
59159;SDS011;44941;45.058;20.076;2023-03-04T00:21:29;69.38;;;29.23;;
59159;SDS011;44941;45.058;20.076;2023-03-04T00:23:55;75.60;;;30.42;;
59159;SDS011;44941;45.058;20.076;2023-03-04T00:26:21;70.28;;;30.17;;
59159;SDS011;44941;45.058;20.076;2023-03-04T00:28:47;75.78;;;30.05;;
59159;SDS011;44941;45.058;20.076;2023-03-04T00:31:13;73.07;;;29.52;;
59159;SDS011;44941;45.058;20.076;2023-03-04T00:33:39;75.20;;;30.48;;
59159;SDS011;44941;45.058;20.076;2023-03-04T00:36:08;77.63;;;30.83;;
59159;SDS011;44941;45.058;20.076;2023-03-04T00:38:34;79.43;;;32.47;;
59159;SDS011;44941;45.058;20.076;2023-03-04T00:41:00;82.07;;;32.03;;
59159;SDS011;44941;45.058;20.076;2023-03-04T00:43:26;80.60;;;33.15;;
59159;SDS011;44941;45.058;20.076;2023-03-04T00:45:52;80.22;;;32.40;;
59159;SDS011;44941;45.058;20.076;2023-03-04T00:48:18;81.93;;;32.47;;
59159;SDS011;44941;45.058;20.076;2023-03-04T00:50:44;77.07;;;32.55;;
59159;SDS011;44941;45.058;20.076;2023-03-04T00:53:10;83.18;;;34.40;;
59159;SDS011;44941;45.058;20.076;2023-03-04T00:55:36;77.72;;;32.92;;
59159;SDS011;44941;45.058;20.076;2023-03-04T00:58:02;84.70;;;34.03;;
59159;SDS011;44941;45.058;20.076;2023-03-04T01:00:28;92.25;;;34.28;;
59159;SDS011;44941;45.058;20.076;2023-03-04T01:02:54;88.72;;;34.28;;
59159;SDS011;44941;45.058;20.076;2023-03-04T01:05:21;94.50;;;36.80;;
59159;SDS011;44941;45.058;20.076;2023-03-04T01:07:47;98.30;;;36.78;;
59159;SDS011;44941;45.058;20.076;2023-03-04T01:10:13;97.47;;;36.47;;
59159;SDS011;44941;45.058;20.076;2023-03-04T01:12:40;104.68;;;37.88;;
59159;SDS011;44941;45.058;20.076;2023-03-04T01:15:06;99.80;;;36.35;;
59159;SDS011;44941;45.058;20.076;2023-03-04T01:17:33;99.28;;;36.85;;
59159;SDS011;44941;45.058;20.076;2023-03-04T01:19:59;108.80;;;39.60;;
59159;SDS011;44941;45.058;20.076;2023-03-04T01:22:25;99.03;;;37.88;;
59159;SDS011;44941;45.058;20.076;2023-03-04T01:30:58;93.97;;;36.03;;
59159;SDS011;44941;45.058;20.076;2023-03-04T01:33:24;92.28;;;36.58;;
59159;SDS011;44941;45.058;20.076;2023-03-04T01:35:50;94.38;;;36.13;;
59159;SDS011;44941;45.058;20.076;2023-03-04T01:38:16;87.72;;;35.97;;
59159;SDS011;44941;45.058;20.076;2023-03-04T01:43:36;93.30;;;35.55;;
59159;SDS011;44941;45.058;20.076;2023-03-04T01:46:02;95.07;;;37.25;;
59159;SDS011;44941;45.058;20.076;2023-03-04T01:48:29;84.22;;;34.45;;
59159;SDS011;44941;45.058;20.076;2023-03-04T01:50:58;98.20;;;37.13;;
59159;SDS011;44941;45.058;20.076;2023-03-04T01:53:27;84.65;;;33.90;;
59159;SDS011;44941;45.058;20.076;2023-03-04T01:55:54;94.68;;;35.47;;
59159;SDS011;44941;45.058;20.076;2023-03-04T01:58:22;89.23;;;35.73;;
59159;SDS011;44941;45.058;20.076;2023-03-04T02:00:48;85.20;;;35.60;;
59159;SDS011;44941;45.058;20.076;2023-03-04T02:03:15;84.03;;;34.83;;
59159;SDS011;44941;45.058;20.076;2023-03-04T02:05:44;83.13;;;34.30;;
59159;SDS011;44941;45.058;20.076;2023-03-04T02:08:11;77.85;;;33.17;;
59159;SDS011;44941;45.058;20.076;2023-03-04T02:10:39;72.38;;;34.17;;
59159;SDS011;44941;45.058;20.076;2023-03-04T02:13:06;76.28;;;33.92;;
59159;SDS011;44941;45.058;20.076;2023-03-04T02:15:32;72.97;;;34.53;;
59159;SDS011;44941;45.058;20.076;2023-03-04T02:17:59;83.38;;;36.38;;
59159;SDS011;44941;45.058;20.076;2023-03-04T02:23:18;81.68;;;34.28;;
59159;SDS011;44941;45.058;20.076;2023-03-04T02:25:49;74.80;;;34.93;;
59159;SDS011;44941;45.058;20.076;2023-03-04T02:28:15;78.80;;;35.00;;
59159;SDS011;44941;45.058;20.076;2023-03-04T02:30:41;87.28;;;36.33;;
59159;SDS011;44941;45.058;20.076;2023-03-04T02:33:15;82.00;;;35.35;;
59159;SDS011;44941;45.058;20.076;2023-03-04T02:35:41;78.35;;;34.08;;
59159;SDS011;44941;45.058;20.076;2023-03-04T02:38:08;80.65;;;34.63;;
59159;SDS011;44941;45.058;20.076;2023-03-04T02:40:34;85.88;;;34.97;;
59159;SDS011;44941;45.058;20.076;2023-03-04T02:43:01;75.85;;;34.65;;
59159;SDS011;44941;45.058;20.076;2023-03-04T02:45:38;83.15;;;35.85;;
59159;SDS011;44941;45.058;20.076;2023-03-04T02:48:05;85.50;;;36.55;;
59159;SDS011;44941;45.058;20.076;2023-03-04T02:50:32;83.70;;;34.70;;
59159;SDS011;44941;45.058;20.076;2023-03-04T02:52:59;87.15;;;36.75;;
59159;SDS011;44941;45.058;20.076;2023-03-04T02:55:25;82.18;;;37.20;;
59159;SDS011;44941;45.058;20.076;2023-03-04T02:57:51;90.30;;;38.30;;
59159;SDS011;44941;45.058;20.076;2023-03-04T03:00:17;90.03;;;38.65;;
59159;SDS011;44941;45.058;20.076;2023-03-04T03:02:43;89.13;;;38.47;;
59159;SDS011;44941;45.058;20.076;2023-03-04T03:05:09;81.95;;;36.38;;
59159;SDS011;44941;45.058;20.076;2023-03-04T03:07:36;72.82;;;34.35;;
59159;SDS011;44941;45.058;20.076;2023-03-04T03:10:02;81.70;;;37.70;;
59159;SDS011;44941;45.058;20.076;2023-03-04T03:12:28;83.05;;;36.90;;
59159;SDS011;44941;45.058;20.076;2023-03-04T03:14:54;85.65;;;34.67;;
59159;SDS011;44941;45.058;20.076;2023-03-04T03:17:20;86.20;;;36.33;;
59159;SDS011;44941;45.058;20.076;2023-03-04T03:19:46;79.32;;;36.50;;
59159;SDS011;44941;45.058;20.076;2023-03-04T03:22:12;76.85;;;35.05;;
59159;SDS011;44941;45.058;20.076;2023-03-04T03:24:38;80.28;;;36.78;;
59159;SDS011;44941;45.058;20.076;2023-03-04T03:30:09;84.85;;;37.38;;
59159;SDS011;44941;45.058;20.076;2023-03-04T03:32:35;84.03;;;37.33;;
59159;SDS011;44941;45.058;20.076;2023-03-04T03:35:02;83.22;;;35.83;;
59159;SDS011;44941;45.058;20.076;2023-03-04T03:37:28;79.07;;;35.03;;
59159;SDS011;44941;45.058;20.076;2023-03-04T03:39:54;78.15;;;34.47;;
59159;SDS011;44941;45.058;20.076;2023-03-04T03:42:23;74.10;;;34.13;;
59159;SDS011;44941;45.058;20.076;2023-03-04T03:44:50;70.93;;;33.42;;
59159;SDS011;44941;45.058;20.076;2023-03-04T03:47:16;69.60;;;32.20;;
59159;SDS011;44941;45.058;20.076;2023-03-04T03:49:42;75.68;;;32.60;;
59159;SDS011;44941;45.058;20.076;2023-03-04T03:52:08;73.90;;;33.63;;
59159;SDS011;44941;45.058;20.076;2023-03-04T03:54:35;72.25;;;32.38;;
59159;SDS011;44941;45.058;20.076;2023-03-04T03:57:01;76.60;;;33.50;;
59159;SDS011;44941;45.058;20.076;2023-03-04T03:59:27;75.93;;;35.05;;
59159;SDS011;44941;45.058;20.076;2023-03-04T04:01:53;78.20;;;35.78;;
59159;SDS011;44941;45.058;20.076;2023-03-04T04:04:19;75.18;;;34.00;;
59159;SDS011;44941;45.058;20.076;2023-03-04T04:06:45;79.45;;;33.90;;
59159;SDS011;44941;45.058;20.076;2023-03-04T04:09:11;80.57;;;34.72;;
59159;SDS011;44941;45.058;20.076;2023-03-04T04:11:37;86.75;;;36.70;;
59159;SDS011;44941;45.058;20.076;2023-03-04T04:14:03;77.88;;;36.85;;
59159;SDS011;44941;45.058;20.076;2023-03-04T04:16:29;78.00;;;35.80;;
59159;SDS011;44941;45.058;20.076;2023-03-04T04:18:55;79.75;;;36.38;;
59159;SDS011;44941;45.058;20.076;2023-03-04T04:21:21;81.10;;;36.95;;
59159;SDS011;44941;45.058;20.076;2023-03-04T04:23:48;81.07;;;36.20;;
59159;SDS011;44941;45.058;20.076;2023-03-04T04:26:14;85.35;;;36.55;;
59159;SDS011;44941;45.058;20.076;2023-03-04T04:28:40;81.35;;;35.42;;
59159;SDS011;44941;45.058;20.076;2023-03-04T04:31:07;77.47;;;34.78;;
59159;SDS011;44941;45.058;20.076;2023-03-04T04:33:33;84.57;;;36.85;;
59159;SDS011;44941;45.058;20.076;2023-03-04T04:35:59;85.22;;;36.83;;
59159;SDS011;44941;45.058;20.076;2023-03-04T04:38:25;80.18;;;34.65;;
59159;SDS011;44941;45.058;20.076;2023-03-04T04:40:52;80.20;;;36.58;;
59159;SDS011;44941;45.058;20.076;2023-03-04T04:43:18;79.07;;;35.60;;
59159;SDS011;44941;45.058;20.076;2023-03-04T04:45:44;74.00;;;33.75;;
59159;SDS011;44941;45.058;20.076;2023-03-04T04:48:10;78.75;;;35.05;;
59159;SDS011;44941;45.058;20.076;2023-03-04T04:50:36;81.50;;;35.20;;
59159;SDS011;44941;45.058;20.076;2023-03-04T04:53:02;73.00;;;33.63;;
59159;SDS011;44941;45.058;20.076;2023-03-04T04:55:32;85.45;;;36.92;;
59159;SDS011;44941;45.058;20.076;2023-03-04T04:57:58;74.75;;;35.65;;
59159;SDS011;44941;45.058;20.076;2023-03-04T05:00:25;71.35;;;33.63;;
59159;SDS011;44941;45.058;20.076;2023-03-04T05:02:51;76.70;;;34.40;;
59159;SDS011;44941;45.058;20.076;2023-03-04T05:05:17;73.43;;;33.20;;
59159;SDS011;44941;45.058;20.076;2023-03-04T05:07:43;74.95;;;33.42;;
59159;SDS011;44941;45.058;20.076;2023-03-04T05:10:09;73.53;;;34.03;;
59159;SDS011;44941;45.058;20.076;2023-03-04T05:12:35;69.45;;;32.92;;
59159;SDS011;44941;45.058;20.076;2023-03-04T05:15:01;64.55;;;32.38;;
59159;SDS011;44941;45.058;20.076;2023-03-04T05:17:27;67.68;;;32.63;;
59159;SDS011;44941;45.058;20.076;2023-03-04T05:19:53;71.53;;;32.22;;
59159;SDS011;44941;45.058;20.076;2023-03-04T05:22:19;69.60;;;32.50;;
59159;SDS011;44941;45.058;20.076;2023-03-04T05:24:45;61.65;;;31.00;;
59159;SDS011;44941;45.058;20.076;2023-03-04T05:27:11;70.70;;;31.98;;
59159;SDS011;44941;45.058;20.076;2023-03-04T05:29:37;70.55;;;32.55;;
59159;SDS011;44941;45.058;20.076;2023-03-04T05:32:03;78.97;;;38.55;;
59159;SDS011;44941;45.058;20.076;2023-03-04T05:34:29;78.07;;;38.55;;
59159;SDS011;44941;45.058;20.076;2023-03-04T05:36:55;72.78;;;35.00;;
59159;SDS011;44941;45.058;20.076;2023-03-04T05:39:21;64.38;;;31.50;;
59159;SDS011;44941;45.058;20.076;2023-03-04T05:41:47;61.28;;;29.77;;
59159;SDS011;44941;45.058;20.076;2023-03-04T05:44:13;65.90;;;30.92;;
59159;SDS011;44941;45.058;20.076;2023-03-04T05:46:39;62.40;;;30.40;;
59159;SDS011;44941;45.058;20.076;2023-03-04T05:49:05;59.78;;;28.73;;
59159;SDS011;44941;45.058;20.076;2023-03-04T05:51:31;65.03;;;31.92;;
59159;SDS011;44941;45.058;20.076;2023-03-04T05:53:58;64.28;;;32.65;;
59159;SDS011;44941;45.058;20.076;2023-03-04T05:59:24;68.30;;;35.45;;
59159;SDS011;44941;45.058;20.076;2023-03-04T06:01:50;68.38;;;35.05;;
59159;SDS011;44941;45.058;20.076;2023-03-04T06:04:16;71.95;;;33.50;;
59159;SDS011;44941;45.058;20.076;2023-03-04T06:06:42;64.35;;;33.30;;
59159;SDS011;44941;45.058;20.076;2023-03-04T06:09:10;64.00;;;33.03;;
59159;SDS011;44941;45.058;20.076;2023-03-04T06:17:28;61.00;;;29.83;;
59159;SDS011;44941;45.058;20.076;2023-03-04T06:19:54;64.00;;;31.10;;
59159;SDS011;44941;45.058;20.076;2023-03-04T06:22:20;62.88;;;30.85;;
59159;SDS011;44941;45.058;20.076;2023-03-04T06:24:46;69.53;;;32.42;;
59159;SDS011;44941;45.058;20.076;2023-03-04T06:27:12;67.15;;;31.90;;
59159;SDS011;44941;45.058;20.076;2023-03-04T06:29:40;61.90;;;29.90;;
59159;SDS011;44941;45.058;20.076;2023-03-04T06:32:06;62.15;;;30.35;;
59159;SDS011;44941;45.058;20.076;2023-03-04T06:34:32;55.90;;;29.92;;
59159;SDS011;44941;45.058;20.076;2023-03-04T06:36:59;58.08;;;29.13;;
59159;SDS011;44941;45.058;20.076;2023-03-04T06:39:25;65.18;;;30.45;;
59159;SDS011;44941;45.058;20.076;2023-03-04T06:41:52;57.40;;;29.02;;
59159;SDS011;44941;45.058;20.076;2023-03-04T06:44:18;61.50;;;30.55;;
59159;SDS011;44941;45.058;20.076;2023-03-04T06:46:44;61.75;;;31.10;;
59159;SDS011;44941;45.058;20.076;2023-03-04T06:49:10;68.10;;;32.78;;
59159;SDS011;44941;45.058;20.076;2023-03-04T06:51:36;66.13;;;32.30;;
59159;SDS011;44941;45.058;20.076;2023-03-04T06:54:02;65.35;;;33.22;;
59159;SDS011;44941;45.058;20.076;2023-03-04T06:56:28;74.50;;;35.05;;
59159;SDS011;44941;45.058;20.076;2023-03-04T06:58:54;64.80;;;33.50;;
59159;SDS011;44941;45.058;20.076;2023-03-04T07:01:21;61.30;;;31.10;;
59159;SDS011;44941;45.058;20.076;2023-03-04T07:03:51;59.22;;;31.50;;
59159;SDS011;44941;45.058;20.076;2023-03-04T07:06:18;63.85;;;30.08;;
59159;SDS011;44941;45.058;20.076;2023-03-04T07:08:45;59.83;;;30.60;;
59159;SDS011;44941;45.058;20.076;2023-03-04T07:11:11;64.20;;;31.50;;
59159;SDS011;44941;45.058;20.076;2023-03-04T07:13:37;63.35;;;32.53;;
59159;SDS011;44941;45.058;20.076;2023-03-04T07:16:07;64.53;;;32.00;;
59159;SDS011;44941;45.058;20.076;2023-03-04T07:18:33;60.85;;;30.98;;
59159;SDS011;44941;45.058;20.076;2023-03-04T07:20:59;63.05;;;31.95;;
59159;SDS011;44941;45.058;20.076;2023-03-04T07:23:25;62.35;;;31.23;;
59159;SDS011;44941;45.058;20.076;2023-03-04T07:25:51;68.70;;;33.30;;
59159;SDS011;44941;45.058;20.076;2023-03-04T07:28:18;67.97;;;34.53;;
59159;SDS011;44941;45.058;20.076;2023-03-04T07:30:44;65.53;;;32.75;;
59159;SDS011;44941;45.058;20.076;2023-03-04T07:33:11;67.60;;;33.75;;
59159;SDS011;44941;45.058;20.076;2023-03-04T07:35:38;66.95;;;32.50;;
59159;SDS011;44941;45.058;20.076;2023-03-04T07:38:04;69.95;;;32.03;;
59159;SDS011;44941;45.058;20.076;2023-03-04T07:40:30;65.38;;;33.10;;
59159;SDS011;44941;45.058;20.076;2023-03-04T07:42:56;71.20;;;34.42;;
59159;SDS011;44941;45.058;20.076;2023-03-04T07:45:23;68.53;;;34.00;;
59159;SDS011;44941;45.058;20.076;2023-03-04T07:47:49;72.95;;;35.28;;
59159;SDS011;44941;45.058;20.076;2023-03-04T07:50:15;73.32;;;34.38;;
59159;SDS011;44941;45.058;20.076;2023-03-04T07:52:43;67.97;;;33.42;;
59159;SDS011;44941;45.058;20.076;2023-03-04T07:55:10;63.83;;;31.53;;
59159;SDS011;44941;45.058;20.076;2023-03-04T07:57:39;67.13;;;32.88;;
59159;SDS011;44941;45.058;20.076;2023-03-04T08:00:06;66.57;;;32.28;;
59159;SDS011;44941;45.058;20.076;2023-03-04T08:02:32;68.30;;;32.67;;
59159;SDS011;44941;45.058;20.076;2023-03-04T08:04:58;64.28;;;32.58;;
59159;SDS011;44941;45.058;20.076;2023-03-04T08:07:24;64.70;;;33.25;;
59159;SDS011;44941;45.058;20.076;2023-03-04T08:09:50;67.22;;;33.38;;
59159;SDS011;44941;45.058;20.076;2023-03-04T08:12:19;66.05;;;30.65;;
59159;SDS011;44941;45.058;20.076;2023-03-04T08:14:45;68.20;;;35.25;;
59159;SDS011;44941;45.058;20.076;2023-03-04T08:17:11;65.97;;;34.67;;
59159;SDS011;44941;45.058;20.076;2023-03-04T08:19:39;63.70;;;33.92;;
59159;SDS011;44941;45.058;20.076;2023-03-04T08:22:05;62.50;;;32.15;;
59159;SDS011;44941;45.058;20.076;2023-03-04T08:24:31;64.22;;;32.67;;
59159;SDS011;44941;45.058;20.076;2023-03-04T08:26:58;60.88;;;33.25;;
59159;SDS011;44941;45.058;20.076;2023-03-04T08:29:24;67.93;;;33.78;;
59159;SDS011;44941;45.058;20.076;2023-03-04T08:31:52;62.35;;;33.13;;
59159;SDS011;44941;45.058;20.076;2023-03-04T08:34:20;62.85;;;32.78;;
59159;SDS011;44941;45.058;20.076;2023-03-04T08:36:46;65.82;;;33.55;;
59159;SDS011;44941;45.058;20.076;2023-03-04T08:39:13;65.13;;;33.40;;
59159;SDS011;44941;45.058;20.076;2023-03-04T08:41:39;55.72;;;31.83;;
59159;SDS011;44941;45.058;20.076;2023-03-04T08:44:05;62.22;;;32.25;;
59159;SDS011;44941;45.058;20.076;2023-03-04T08:46:34;63.65;;;34.13;;
59159;SDS011;44941;45.058;20.076;2023-03-04T08:49:00;66.28;;;33.25;;
59159;SDS011;44941;45.058;20.076;2023-03-04T08:51:26;62.05;;;34.45;;
59159;SDS011;44941;45.058;20.076;2023-03-04T08:53:52;68.68;;;34.47;;
59159;SDS011;44941;45.058;20.076;2023-03-04T08:56:18;65.97;;;34.72;;
59159;SDS011;44941;45.058;20.076;2023-03-04T08:59:00;65.07;;;33.55;;
59159;SDS011;44941;45.058;20.076;2023-03-04T09:01:26;65.05;;;32.40;;
59159;SDS011;44941;45.058;20.076;2023-03-04T09:03:52;60.55;;;32.17;;
59159;SDS011;44941;45.058;20.076;2023-03-04T09:06:18;67.30;;;32.25;;
59159;SDS011;44941;45.058;20.076;2023-03-04T09:08:44;60.13;;;31.92;;
59159;SDS011;44941;45.058;20.076;2023-03-04T09:11:11;60.42;;;32.05;;
59159;SDS011;44941;45.058;20.076;2023-03-04T09:16:23;56.47;;;29.73;;
59159;SDS011;44941;45.058;20.076;2023-03-04T09:18:49;61.63;;;31.92;;
59159;SDS011;44941;45.058;20.076;2023-03-04T09:21:15;53.22;;;29.67;;
59159;SDS011;44941;45.058;20.076;2023-03-04T09:23:41;56.38;;;31.63;;
59159;SDS011;44941;45.058;20.076;2023-03-04T09:26:21;53.35;;;30.42;;
59159;SDS011;44941;45.058;20.076;2023-03-04T09:28:51;58.17;;;30.88;;
59159;SDS011;44941;45.058;20.076;2023-03-04T09:31:17;56.88;;;31.02;;
59159;SDS011;44941;45.058;20.076;2023-03-04T09:33:43;54.90;;;30.13;;
59159;SDS011;44941;45.058;20.076;2023-03-04T09:36:10;56.00;;;28.90;;
59159;SDS011;44941;45.058;20.076;2023-03-04T09:38:36;59.60;;;30.00;;
59159;SDS011;44941;45.058;20.076;2023-03-04T09:41:03;49.80;;;28.40;;
59159;SDS011;44941;45.058;20.076;2023-03-04T09:43:30;55.55;;;29.70;;
59159;SDS011;44941;45.058;20.076;2023-03-04T09:45:58;60.67;;;29.15;;
59159;SDS011;44941;45.058;20.076;2023-03-04T09:48:27;54.17;;;29.40;;
59159;SDS011;44941;45.058;20.076;2023-03-04T09:53:20;53.58;;;28.67;;
59159;SDS011;44941;45.058;20.076;2023-03-04T10:01:03;56.83;;;32.15;;
59159;SDS011;44941;45.058;20.076;2023-03-04T10:03:45;52.38;;;29.58;;
59159;SDS011;44941;45.058;20.076;2023-03-04T10:06:15;56.25;;;29.58;;
59159;SDS011;44941;45.058;20.076;2023-03-04T10:11:28;51.28;;;28.92;;
59159;SDS011;44941;45.058;20.076;2023-03-04T10:16:31;51.78;;;29.00;;
59159;SDS011;44941;45.058;20.076;2023-03-04T10:21:33;53.63;;;28.83;;
59159;SDS011;44941;45.058;20.076;2023-03-04T10:24:06;55.75;;;29.40;;
59159;SDS011;44941;45.058;20.076;2023-03-04T10:26:36;58.88;;;29.67;;
59159;SDS011;44941;45.058;20.076;2023-03-04T10:29:02;52.45;;;31.55;;
59159;SDS011;44941;45.058;20.076;2023-03-04T10:33:59;54.40;;;29.15;;
59159;SDS011;44941;45.058;20.076;2023-03-04T10:39:02;60.05;;;29.50;;
59159;SDS011;44941;45.058;20.076;2023-03-04T10:41:30;52.70;;;29.23;;
59159;SDS011;44941;45.058;20.076;2023-03-04T10:46:48;56.72;;;31.95;;
59159;SDS011;44941;45.058;20.076;2023-03-04T10:49:15;56.70;;;30.10;;
59159;SDS011;44941;45.058;20.076;2023-03-04T10:51:43;50.15;;;28.17;;
59159;SDS011;44941;45.058;20.076;2023-03-04T10:54:21;49.80;;;29.02;;
59159;SDS011;44941;45.058;20.076;2023-03-04T10:56:53;51.35;;;30.98;;
59159;SDS011;44941;45.058;20.076;2023-03-04T11:01:52;50.83;;;30.10;;
59159;SDS011;44941;45.058;20.076;2023-03-04T11:04:21;54.30;;;29.75;;
59159;SDS011;44941;45.058;20.076;2023-03-04T11:06:49;51.45;;;29.75;;
59159;SDS011;44941;45.058;20.076;2023-03-04T11:09:49;51.72;;;29.10;;
59159;SDS011;44941;45.058;20.076;2023-03-04T11:12:12;47.38;;;27.05;;
59159;SDS011;44941;45.058;20.076;2023-03-04T11:14:48;51.10;;;28.95;;
59159;SDS011;44941;45.058;20.076;2023-03-04T11:17:20;48.13;;;29.50;;
59159;SDS011;44941;45.058;20.076;2023-03-04T11:19:50;55.83;;;31.83;;
59159;SDS011;44941;45.058;20.076;2023-03-04T11:22:18;51.25;;;28.38;;
59159;SDS011;44941;45.058;20.076;2023-03-04T11:24:44;54.03;;;30.83;;
59159;SDS011;44941;45.058;20.076;2023-03-04T11:27:19;51.75;;;30.13;;
59159;SDS011;44941;45.058;20.076;2023-03-04T11:29:50;55.65;;;32.47;;
59159;SDS011;44941;45.058;20.076;2023-03-04T11:34:45;223.90;;;129.68;;
59159;SDS011;44941;45.058;20.076;2023-03-04T11:39:51;61.05;;;35.08;;
59159;SDS011;44941;45.058;20.076;2023-03-04T11:44:49;50.08;;;28.88;;
59159;SDS011;44941;45.058;20.076;2023-03-04T11:47:18;61.25;;;34.35;;
59159;SDS011;44941;45.058;20.076;2023-03-04T11:52:18;49.63;;;29.30;;
59159;SDS011;44941;45.058;20.076;2023-03-04T12:02:38;39.60;;;25.70;;
59159;SDS011;44941;45.058;20.076;2023-03-04T12:10:40;51.95;;;28.65;;
59159;SDS011;44941;45.058;20.076;2023-03-04T12:20:52;38.20;;;23.38;;
59159;SDS011;44941;45.058;20.076;2023-03-04T12:31:18;27.35;;;15.32;;
59159;SDS011;44941;45.058;20.076;2023-03-04T12:36:31;32.45;;;17.70;;
59159;SDS011;44941;45.058;20.076;2023-03-04T12:44:17;35.40;;;19.48;;
59159;SDS011;44941;45.058;20.076;2023-03-04T12:54:49;31.83;;;19.02;;
59159;SDS011;44941;45.058;20.076;2023-03-04T12:57:25;27.52;;;13.40;;
59159;SDS011;44941;45.058;20.076;2023-03-04T13:05:02;27.70;;;10.07;;
59159;SDS011;44941;45.058;20.076;2023-03-04T13:10:09;24.83;;;14.20;;
59159;SDS011;44941;45.058;20.076;2023-03-04T13:12:46;26.52;;;14.80;;
59159;SDS011;44941;45.058;20.076;2023-03-04T13:18:30;34.03;;;16.25;;
59159;SDS011;44941;45.058;20.076;2023-03-04T13:21:30;28.95;;;13.82;;
59159;SDS011;44941;45.058;20.076;2023-03-04T13:23:50;29.88;;;15.90;;
59159;SDS011;44941;45.058;20.076;2023-03-04T13:26:21;30.52;;;15.40;;
59159;SDS011;44941;45.058;20.076;2023-03-04T13:28:54;32.80;;;15.35;;
59159;SDS011;44941;45.058;20.076;2023-03-04T13:31:35;28.48;;;14.27;;
59159;SDS011;44941;45.058;20.076;2023-03-04T13:37:20;25.58;;;13.15;;
59159;SDS011;44941;45.058;20.076;2023-03-04T13:40:22;25.00;;;12.77;;
59159;SDS011;44941;45.058;20.076;2023-03-04T13:42:38;28.17;;;13.90;;
59159;SDS011;44941;45.058;20.076;2023-03-04T13:45:04;24.60;;;14.20;;
59159;SDS011;44941;45.058;20.076;2023-03-04T13:47:39;26.02;;;13.85;;
59159;SDS011;44941;45.058;20.076;2023-03-04T13:52:52;30.73;;;15.68;;
59159;SDS011;44941;45.058;20.076;2023-03-04T13:55:37;29.00;;;13.60;;
59159;SDS011;44941;45.058;20.076;2023-03-04T13:58:17;95.15;;;58.95;;
59159;SDS011;44941;45.058;20.076;2023-03-04T14:03:31;37.60;;;22.35;;
59159;SDS011;44941;45.058;20.076;2023-03-04T14:06:16;41.13;;;22.17;;
59159;SDS011;44941;45.058;20.076;2023-03-04T14:08:43;33.60;;;19.35;;
59159;SDS011;44941;45.058;20.076;2023-03-04T14:11:14;28.77;;;17.23;;
59159;SDS011;44941;45.058;20.076;2023-03-04T14:13:40;32.38;;;15.82;;
59159;SDS011;44941;45.058;20.076;2023-03-04T14:16:07;25.52;;;13.73;;
59159;SDS011;44941;45.058;20.076;2023-03-04T14:18:33;21.95;;;12.65;;
59159;SDS011;44941;45.058;20.076;2023-03-04T14:21:00;26.05;;;13.30;;
59159;SDS011;44941;45.058;20.076;2023-03-04T14:23:31;24.40;;;12.77;;
59159;SDS011;44941;45.058;20.076;2023-03-04T14:28:29;25.70;;;13.38;;
59159;SDS011;44941;45.058;20.076;2023-03-04T14:30:55;24.02;;;13.57;;
59159;SDS011;44941;45.058;20.076;2023-03-04T14:33:23;23.65;;;14.13;;
59159;SDS011;44941;45.058;20.076;2023-03-04T14:35:50;26.08;;;14.20;;
59159;SDS011;44941;45.058;20.076;2023-03-04T14:40:44;30.85;;;15.43;;
59159;SDS011;44941;45.058;20.076;2023-03-04T14:43:12;24.02;;;15.10;;
59159;SDS011;44941;45.058;20.076;2023-03-04T14:45:44;26.10;;;14.95;;
59159;SDS011;44941;45.058;20.076;2023-03-04T14:48:15;28.23;;;14.48;;
59159;SDS011;44941;45.058;20.076;2023-03-04T14:50:49;25.20;;;13.57;;
59159;SDS011;44941;45.058;20.076;2023-03-04T14:53:16;22.85;;;13.85;;
59159;SDS011;44941;45.058;20.076;2023-03-04T14:55:56;25.73;;;13.70;;
59159;SDS011;44941;45.058;20.076;2023-03-04T14:58:24;24.45;;;15.95;;
59159;SDS011;44941;45.058;20.076;2023-03-04T15:03:56;26.38;;;15.50;;
59159;SDS011;44941;45.058;20.076;2023-03-04T15:06:25;25.23;;;15.05;;
59159;SDS011;44941;45.058;20.076;2023-03-04T15:08:55;25.17;;;16.17;;
59159;SDS011;44941;45.058;20.076;2023-03-04T15:11:23;29.85;;;16.17;;
59159;SDS011;44941;45.058;20.076;2023-03-04T15:13:50;25.08;;;16.23;;
59159;SDS011;44941;45.058;20.076;2023-03-04T15:16:18;25.42;;;16.50;;
59159;SDS011;44941;45.058;20.076;2023-03-04T15:18:53;30.95;;;17.48;;
59159;SDS011;44941;45.058;20.076;2023-03-04T15:23:45;29.55;;;16.73;;
59159;SDS011;44941;45.058;20.076;2023-03-04T15:26:11;30.85;;;17.25;;
59159;SDS011;44941;45.058;20.076;2023-03-04T15:28:38;28.45;;;16.75;;
59159;SDS011;44941;45.058;20.076;2023-03-04T15:31:18;25.38;;;16.02;;
59159;SDS011;44941;45.058;20.076;2023-03-04T15:33:44;28.70;;;15.85;;
59159;SDS011;44941;45.058;20.076;2023-03-04T15:36:14;25.48;;;15.27;;
59159;SDS011;44941;45.058;20.076;2023-03-04T15:38:42;27.50;;;16.40;;
59159;SDS011;44941;45.058;20.076;2023-03-04T15:41:10;27.90;;;16.52;;
59159;SDS011;44941;45.058;20.076;2023-03-04T15:43:37;27.23;;;15.75;;
59159;SDS011;44941;45.058;20.076;2023-03-04T15:46:07;25.27;;;16.17;;
59159;SDS011;44941;45.058;20.076;2023-03-04T15:48:34;26.00;;;15.73;;
59159;SDS011;44941;45.058;20.076;2023-03-04T15:51:00;28.52;;;16.55;;
59159;SDS011;44941;45.058;20.076;2023-03-04T15:53:34;28.30;;;16.85;;
59159;SDS011;44941;45.058;20.076;2023-03-04T15:56:02;29.33;;;17.58;;
59159;SDS011;44941;45.058;20.076;2023-03-04T15:58:28;31.33;;;17.65;;
59159;SDS011;44941;45.058;20.076;2023-03-04T16:00:55;31.77;;;17.30;;
59159;SDS011;44941;45.058;20.076;2023-03-04T16:03:21;29.70;;;17.45;;
59159;SDS011;44941;45.058;20.076;2023-03-04T16:05:47;29.65;;;18.08;;
59159;SDS011;44941;45.058;20.076;2023-03-04T16:08:15;27.35;;;16.23;;
59159;SDS011;44941;45.058;20.076;2023-03-04T16:10:42;31.77;;;16.98;;
59159;SDS011;44941;45.058;20.076;2023-03-04T16:13:11;26.90;;;16.70;;
59159;SDS011;44941;45.058;20.076;2023-03-04T16:15:38;28.67;;;16.90;;
59159;SDS011;44941;45.058;20.076;2023-03-04T16:18:04;32.85;;;17.50;;
59159;SDS011;44941;45.058;20.076;2023-03-04T16:20:32;29.30;;;17.08;;
59159;SDS011;44941;45.058;20.076;2023-03-04T16:22:59;35.08;;;17.75;;
59159;SDS011;44941;45.058;20.076;2023-03-04T16:25:25;32.97;;;18.20;;
59159;SDS011;44941;45.058;20.076;2023-03-04T16:27:52;40.78;;;22.95;;
59159;SDS011;44941;45.058;20.076;2023-03-04T16:30:21;57.58;;;30.95;;